Flight Track Log - Related Links

Times and Time Zones

All times are in EDT time to prevent confusion due to time zone crossing. See the SKW6492 flight status page for this flight to view local times or setup timezone preferences in your user account.

Time Position Orientation Groundspeed Altitude Reporting Facility
EDT Latitude Longitude Course Direction KTS MPH feet Rate Location/Type
Sun 09:35:54 PM 39.8500 -104.7833 12° North 203 234 7,400  Level Denver TRACON
Sun 09:36:48 PM 39.8833 -104.8500 303° West 236 272 9,600 1,500 Climbing Denver TRACON
Sun 09:37:42 PM 39.9167 -104.9167 303° West 300 345 10,100 263 Climbing Denver TRACON
Sun 09:38:00 PM 40.1999 -104.9637 346° North  Level Estimated
Sun 09:38:42 PM 40.0167 -104.9167 360° North 325 374 10,100  Level Denver TRACON
Sun 09:39:00 PM 40.2843 -105.0368 348° North  Level Estimated
Sun 09:39:12 PM 40.0547 -104.9219 354° North 321 369 10,700  Level Denver Center
Sun 09:40:00 PM 40.3687 -105.1100 346° North  Level Estimated
Sun 09:40:13 PM 40.1464 -104.9153 North 329 379 13,100  Level Denver Center
Sun 09:41:00 PM 40.4678 -105.0831 12° North  Level FlightAware Approximate
Sun 09:41:15 PM 40.2472 -104.9028 North 341 392 15,700  Level Denver Center
Sun 09:42:17 PM 40.3394 -104.8944 North 335 386 18,000 1,790 Climbing Denver Center
Sun 09:43:19 PM 40.4431 -104.8836 North 349 402 19,400 1,355 Climbing Denver Center
Sun 09:44:21 PM 40.5403 -104.8767 North 353 406 20,800 1,548 Climbing Denver Center
Sun 09:45:23 PM 40.6397 -104.8644 North 361 415 22,600 1,597 Climbing Denver Center
Sun 09:46:25 PM 40.7500 -104.8547 North 359 413 24,100 1,161 Climbing Denver Center
Sun 09:47:27 PM 40.8453 -104.8828 347° North 352 405 25,000 968 Climbing Denver Center
Sun 09:48:29 PM 40.9258 -104.9647 322° Northwest 363 418 26,100 919 Climbing Denver Center
Sun 09:49:31 PM 41.0111 -105.0503 323° Northwest 366 421 26,900 732 Climbing Denver Center
Sun 09:50:32 PM 41.0900 -105.1308 322° Northwest 371 427 27,600 732 Climbing Denver Center
Sun 09:51:34 PM 41.1828 -105.2242 323° Northwest 374 430 28,400 774 Climbing Denver Center
Sun 09:52:36 PM 41.2625 -105.3039 323° Northwest 374 430 29,200 823 Climbing Denver Center
Sun 09:53:38 PM 41.3547 -105.3981 323° Northwest 375 432 30,100 823 Climbing Denver Center
Sun 09:54:40 PM 41.4339 -105.4792 322° Northwest 374 430 30,900 823 Climbing Denver Center
Sun 09:55:42 PM 41.5247 -105.5728 322° Northwest 371 427 31,800 532 Climbing Denver Center
Sun 09:56:44 PM 41.6025 -105.6525 323° Northwest 369 425 32,000 97 Climbing Denver Center
Sun 09:57:46 PM 41.6833 -105.7372 322° Northwest 381 438 32,000  Level Denver Center
Sun 09:58:47 PM 41.7806 -105.8364 323° Northwest 389 448 32,000  Level Denver Center
Sun 09:59:49 PM 41.8628 -105.9219 322° Northwest 391 450 32,000  Level Denver Center
Sun 10:00:51 PM 41.9589 -106.0222 322° Northwest 391 450 32,000  Level Denver Center
Sun 10:01:53 PM 42.0419 -106.1089 322° Northwest 391 450 32,000  Level Denver Center
Sun 10:02:55 PM 42.1369 -106.2100 322° Northwest 389 448 32,000  Level Denver Center
Sun 10:03:56 PM 42.2219 -106.2983 322° Northwest 398 458 32,000  Level Denver Center
Sun 10:04:58 PM 42.3047 -106.3861 322° Northwest 396 456 32,000  Level Denver Center
Sun 10:06:00 PM 42.4014 -106.4903 322° Northwest 398 458 32,000  Level Denver Center
Sun 10:07:02 PM 42.4867 -106.5789 323° Northwest 402 463 32,000  Level Denver Center
Sun 10:08:03 PM 42.5833 -106.6833 322° Northwest 400 460 32,000  Level Denver Center
Sun 10:09:05 PM 42.6664 -106.7708 322° Northwest 396 456 32,000  Level Denver Center
Sun 10:10:07 PM 42.7606 -106.8731 321° Northwest 388 447 32,000  Level Denver Center
Sun 10:11:09 PM 42.8436 -106.9608 322° Northwest 392 451 32,000  Level Denver Center
Sun 10:11:53 PM 42.9047 -107.0289 321° Northwest 388 447 32,000  Level Salt Lake Center
Sun 10:12:54 PM 42.9975 -107.1311 321° Northwest 391 450 32,000  Level Salt Lake Center
Sun 10:13:56 PM 43.0808 -107.2222 321° Northwest 386 444 32,000  Level Salt Lake Center
Sun 10:14:58 PM 43.1644 -107.3142 321° Northwest 386 444 32,000  Level Salt Lake Center
Sun 10:15:59 PM 43.2478 -107.4058 321° Northwest 383 441 32,000 -585 Level Salt Lake Center
Sun 10:17:01 PM 43.3328 -107.5008 321° Northwest 392 451 30,800 -1,171 Descending Salt Lake Center
Sun 10:18:02 PM 43.4236 -107.6006 321° Northwest 412 474 29,600 -1,171 Descending Salt Lake Center
Sun 10:19:04 PM 43.5086 -107.6958 321° Northwest 399 459 28,400 -1,317 Descending Salt Lake Center
Sun 10:20:05 PM 43.5908 -107.7881 321° Northwest 384 442 26,900 -1,707 Descending Salt Lake Center
Sun 10:21:07 PM 43.6967 -107.8889 325° Northwest 386 444 24,900 -1,707 Descending Salt Lake Center
Sun 10:22:08 PM 43.7853 -107.9661 328° Northwest 378 435 23,400 -1,512 Descending Salt Lake Center
Sun 10:23:10 PM 43.8658 -108.0381 327° Northwest 351 404 21,800 -1,610 Descending Salt Lake Center
Sun 10:24:11 PM 43.9467 -108.1083 328° Northwest 345 397 20,100 -1,610 Descending Salt Lake Center
Sun 10:25:13 PM 44.0300 -108.1819 328° Northwest 351 404 18,500 -1,073 Descending Salt Lake Center
Sun 10:26:14 PM 44.1136 -108.2550 328° Northwest 353 406 17,900 -439 Descending Salt Lake Center
Sun 10:27:16 PM 44.1967 -108.3292 327° Northwest 353 406 17,600 -390 Descending Salt Lake Center
Sun 10:28:17 PM 44.2819 -108.4067 327° Northwest 357 411 17,100 -732 Descending Salt Lake Center
Sun 10:29:19 PM 44.3697 -108.4831 328° Northwest 365 420 16,100 -1,073 Descending Salt Lake Center
Sun 10:30:20 PM 44.4728 -108.5758 327° Northwest 367 422 14,900 -1,073 Descending Salt Lake Center
Sun 10:31:22 PM 44.5519 -108.6467 327° Northwest 356 410 13,900 -1,317 Descending Salt Lake Center
Sun 10:32:23 PM 44.6269 -108.7208 325° Northwest 343 395 12,200 -1,854 Descending Salt Lake Center
Sun 10:33:25 PM 44.6622 -108.8125 298° West 300 345 10,100 -1,951 Descending Salt Lake Center
Sun 10:34:26 PM 44.6361 -108.8897 245° Southwest 266 306 8,200 -1,463 Descending Salt Lake Center
Sun 10:35:28 PM 44.5878 -108.9261 208° Southwest 226 260 7,100 -1,073 Descending Salt Lake Center
Sun 10:36:29 PM 44.5500 -108.9647 216° Southwest 196 226 6,000 -634 Descending Salt Lake Center
Sun 10:37:31 PM 44.5156 -109.0142 226° Southwest 184 212 5,800 -194 Descending Salt Lake Center

Login

Don't have an account? Register now (free) for customized features, flight alerts, and more!